Time;durP1;ratioP1;P1;durP2;ratioP2;P2;SDS_P1;SDS_P2;PMS_P1;PMS_P2;Temp;Humidity;BMP_temperature;BMP_pressure;BME280_temperature;BME280_humidity;BME280_pressure;Samples;Min_cycle;Max_cycle;Signal;HPM_P1;HPM_P2
2024/01/02 00:02:10;;;;;;;18.33;4.00;;;11.00;99.90;;;;;;5064880;28;20021;-52
2024/01/02 00:04:36;;;;;;;32.08;3.25;;;11.00;99.90;;;;;;5067249;28;20036;-48
2024/01/02 00:07:02;;;;;;;20.55;3.10;;;11.00;99.90;;;;;;5069426;28;20308;-48
2024/01/02 00:09:28;;;;;;;21.20;3.35;;;11.00;99.90;;;;;;5069070;28;20053;-48
2024/01/02 00:11:54;;;;;;;24.00;5.25;;;11.00;99.90;;;;;;5068405;28;20438;-48
2024/01/02 00:14:19;;;;;;;18.80;3.55;;;10.90;99.90;;;;;;5069569;28;20032;-49
2024/01/02 00:16:45;;;;;;;23.45;4.15;;;10.90;99.90;;;;;;5069434;28;20013;-50
2024/01/02 00:19:11;;;;;;;18.88;3.67;;;11.00;99.90;;;;;;5069605;28;20096;-50
2024/01/02 00:21:36;;;;;;;14.85;3.47;;;10.90;99.90;;;;;;5069177;28;20037;-51
2024/01/02 00:24:03;;;;;;;19.58;4.18;;;10.90;99.90;;;;;;5068823;28;20021;-50
2024/01/02 00:26:29;;;;;;;11.15;3.05;;;10.90;99.90;;;;;;5068174;28;20025;-51
2024/01/02 00:28:54;;;;;;;18.73;3.90;;;10.90;99.90;;;;;;5069280;28;20048;-51
2024/01/02 00:31:20;;;;;;;20.67;4.78;;;10.90;99.90;;;;;;5069039;28;20282;-50
2024/01/02 00:33:46;;;;;;;20.80;3.92;;;10.80;99.90;;;;;;5067971;28;20028;-50
2024/01/02 00:36:11;;;;;;;22.05;4.78;;;10.80;99.90;;;;;;5069044;28;20044;-49
2024/01/02 00:38:38;;;;;;;19.73;3.65;;;10.80;99.90;;;;;;5068557;28;20049;-51
2024/01/02 00:41:04;;;;;;;29.63;4.07;;;10.80;99.90;;;;;;5068684;28;20168;-50
2024/01/02 00:43:30;;;;;;;18.25;3.72;;;10.70;99.90;;;;;;5068739;28;20043;-50
2024/01/02 00:45:56;;;;;;;26.20;5.00;;;10.70;99.90;;;;;;5067841;28;20052;-51
2024/01/02 00:48:22;;;;;;;22.50;3.78;;;10.60;99.90;;;;;;5067994;28;20039;-50
2024/01/02 00:50:47;;;;;;;19.85;4.40;;;10.60;99.90;;;;;;5068853;28;20036;-51
2024/01/02 00:53:13;;;;;;;18.73;3.15;;;10.50;99.90;;;;;;5068643;28;20025;-48
2024/01/02 00:55:39;;;;;;;21.25;4.75;;;10.50;99.90;;;;;;5068562;28;20021;-51
2024/01/02 00:58:04;;;;;;;28.80;4.72;;;10.40;99.90;;;;;;5067636;28;20025;-50
2024/01/02 01:00:30;;;;;;;19.80;4.35;;;10.40;99.90;;;;;;5067440;28;20027;-51
2024/01/02 01:02:56;;;;;;;18.42;3.80;;;10.40;99.90;;;;;;5067673;28;20043;-48
2024/01/02 01:05:21;;;;;;;29.95;4.63;;;10.40;99.90;;;;;;5068301;28;20028;-51
2024/01/02 01:07:47;;;;;;;30.05;5.80;;;10.40;99.90;;;;;;5068578;28;20021;-51
2024/01/02 01:10:13;;;;;;;24.05;5.13;;;10.50;99.90;;;;;;5050665;28;20048;-51
2024/01/02 01:12:39;;;;;;;26.58;4.72;;;10.50;99.90;;;;;;5067193;28;20033;-51
2024/01/02 01:15:05;;;;;;;26.20;4.35;;;10.50;99.90;;;;;;5067544;28;20084;-49
2024/01/02 01:17:31;;;;;;;24.48;5.03;;;10.50;99.90;;;;;;5067853;28;20024;-48
2024/01/02 01:19:56;;;;;;;27.13;4.05;;;10.50;99.90;;;;;;5067121;28;20098;-48
2024/01/02 01:22:22;;;;;;;19.75;3.75;;;10.40;99.90;;;;;;5068336;28;20166;-47
2024/01/02 01:24:48;;;;;;;18.60;3.85;;;10.40;99.90;;;;;;5068295;28;20029;-47
2024/01/02 01:27:14;;;;;;;32.80;5.22;;;10.40;99.90;;;;;;5067918;28;20067;-50
2024/01/02 01:29:39;;;;;;;27.45;6.75;;;10.40;99.90;;;;;;5068160;28;20291;-51
2024/01/02 01:32:05;;;;;;;28.60;4.40;;;10.40;99.90;;;;;;5067968;28;20341;-50
2024/01/02 01:34:31;;;;;;;20.33;3.97;;;10.40;99.90;;;;;;5068048;28;20179;-50
2024/01/02 01:36:57;;;;;;;21.85;4.55;;;10.50;99.90;;;;;;5067960;28;20028;-50
2024/01/02 01:39:23;;;;;;;22.48;4.32;;;10.50;99.90;;;;;;5067666;28;20025;-50
2024/01/02 01:41:48;;;;;;;18.20;3.08;;;10.60;99.90;;;;;;5067685;28;20103;-48
2024/01/02 01:44:14;;;;;;;17.85;4.25;;;10.60;99.90;;;;;;5067799;28;20025;-47
2024/01/02 01:46:40;;;;;;;15.63;3.55;;;10.60;99.90;;;;;;5067834;28;20040;-48
2024/01/02 01:49:06;;;;;;;25.48;4.45;;;10.70;99.90;;;;;;5067882;28;20055;-50
2024/01/02 01:51:36;;;;;;;26.38;4.03;;;10.70;99.90;;;;;;5066881;28;20311;-48
2024/01/02 01:54:03;;;;;;;19.17;4.60;;;10.70;99.90;;;;;;5049967;28;20041;-49
2024/01/02 01:56:29;;;;;;;23.45;3.78;;;10.70;99.90;;;;;;5050106;28;20032;-49
2024/01/02 01:58:55;;;;;;;28.33;5.25;;;10.70;99.90;;;;;;5049921;28;20063;-50
2024/01/02 02:01:20;;;;;;;35.47;5.55;;;10.70;99.90;;;;;;5067700;28;20029;-50
2024/01/02 02:03:46;;;;;;;29.20;4.70;;;10.70;99.90;;;;;;5066406;28;20052;-50
2024/01/02 02:06:12;;;;;;;31.50;4.78;;;10.70;99.90;;;;;;5049907;28;20025;-50
2024/01/02 02:08:38;;;;;;;23.73;3.40;;;10.70;99.90;;;;;;5067167;28;20257;-49
2024/01/02 02:11:04;;;;;;;34.28;4.95;;;10.70;99.90;;;;;;5066429;28;20071;-50
2024/01/02 02:13:30;;;;;;;40.30;5.25;;;10.70;99.90;;;;;;5067227;28;20033;-50
2024/01/02 02:15:55;;;;;;;30.30;5.15;;;10.70;99.90;;;;;;5066422;28;20043;-47
2024/01/02 02:18:21;;;;;;;37.63;5.35;;;10.80;99.90;;;;;;5066771;28;20031;-49
2024/01/02 02:20:46;;;;;;;39.33;5.72;;;10.80;99.90;;;;;;5067119;28;20031;-50
2024/01/02 02:23:12;;;;;;;33.35;5.28;;;10.80;99.90;;;;;;5067052;28;20268;-50
2024/01/02 02:25:38;;;;;;;33.88;5.72;;;10.80;99.90;;;;;;5066840;28;20033;-47
2024/01/02 02:28:04;;;;;;;31.08;4.90;;;10.90;99.90;;;;;;5066131;28;20029;-48
2024/01/02 02:30:29;;;;;;;32.03;5.07;;;10.90;99.90;;;;;;5066001;28;20053;-47
2024/01/02 02:32:55;;;;;;;47.65;6.55;;;10.80;99.90;;;;;;5066345;28;20186;-48
2024/01/02 02:35:21;;;;;;;41.33;7.05;;;10.80;99.90;;;;;;5066951;28;20032;-47
2024/01/02 02:37:46;;;;;;;48.60;6.82;;;10.80;99.90;;;;;;5066919;28;20028;-47
2024/01/02 02:40:12;;;;;;;45.50;6.13;;;10.80;99.90;;;;;;5066897;28;20032;-48
2024/01/02 02:42:38;;;;;;;53.75;7.07;;;10.80;99.90;;;;;;5066698;28;20083;-47
2024/01/02 02:45:05;;;;;;;37.28;5.35;;;10.80;99.90;;;;;;5066345;28;20049;-49
2024/01/02 02:47:30;;;;;;;45.22;7.78;;;10.70;99.90;;;;;;5066555;28;20058;-46
2024/01/02 02:49:56;;;;;;;42.97;5.93;;;10.70;99.90;;;;;;5066413;28;20036;-48
2024/01/02 02:52:22;;;;;;;35.63;5.63;;;10.70;99.90;;;;;;5066548;28;20071;-47
2024/01/02 02:54:48;;;;;;;48.75;5.57;;;10.70;99.90;;;;;;5066530;28;20029;-46
2024/01/02 02:57:14;;;;;;;30.17;3.97;;;10.60;99.90;;;;;;5065273;28;20021;-47
2024/01/02 02:59:39;;;;;;;34.38;4.40;;;10.60;99.90;;;;;;5066277;28;20102;-48
2024/01/02 03:02:05;;;;;;;47.35;6.18;;;10.60;99.90;;;;;;5066225;28;20194;-47
2024/01/02 03:04:31;;;;;;;48.63;7.72;;;10.70;99.90;;;;;;5065838;28;20032;-47
2024/01/02 03:06:56;;;;;;;42.28;5.25;;;10.60;99.90;;;;;;5066365;28;20202;-46
2024/01/02 03:09:22;;;;;;;54.85;6.80;;;10.60;99.90;;;;;;5065961;28;20052;-47
2024/01/02 03:11:48;;;;;;;54.28;6.93;;;10.60;99.90;;;;;;5066084;28;20033;-46
2024/01/02 03:14:14;;;;;;;45.53;5.53;;;10.70;99.90;;;;;;5065198;28;20031;-46
2024/01/02 03:16:42;;;;;;;56.50;6.63;;;10.70;99.90;;;;;;5066189;28;20049;-47
2024/01/02 03:19:07;;;;;;;56.33;6.85;;;10.70;99.90;;;;;;5064840;28;20021;-47
2024/01/02 03:21:33;;;;;;;48.95;6.35;;;10.80;99.90;;;;;;5066019;28;20098;-48
2024/01/02 03:23:59;;;;;;;50.08;6.15;;;10.80;99.90;;;;;;5064868;28;20291;-47
2024/01/02 03:26:25;;;;;;;42.53;6.28;;;10.80;99.90;;;;;;5066044;28;20290;-48
2024/01/02 03:28:50;;;;;;;62.13;6.93;;;10.80;99.90;;;;;;5065981;28;20036;-46
2024/01/02 03:31:16;;;;;;;32.65;5.75;;;10.90;99.90;;;;;;5065867;28;20048;-47
2024/01/02 03:33:42;;;;;;;35.33;5.97;;;10.90;99.90;;;;;;5047987;28;20295;-47
2024/01/02 03:36:17;;;;;;;54.72;7.03;;;10.90;99.90;;;;;;5065859;28;20055;-47
2024/01/02 03:38:47;;;;;;;39.67;5.85;;;10.90;99.90;;;;;;5065607;28;20099;-47
2024/01/02 03:41:13;;;;;;;54.55;6.70;;;10.90;99.90;;;;;;5065694;28;20021;-47
2024/01/02 03:43:39;;;;;;;48.25;6.45;;;10.90;99.90;;;;;;5065485;28;20079;-48
2024/01/02 03:46:05;;;;;;;38.33;5.72;;;10.90;99.90;;;;;;5065556;28;20025;-47
2024/01/02 03:48:30;;;;;;;34.95;6.65;;;10.90;99.90;;;;;;5065648;28;20021;-48
2024/01/02 03:50:56;;;;;;;45.85;5.80;;;10.80;99.90;;;;;;5065647;28;20174;-47
2024/01/02 03:53:22;;;;;;;48.45;6.07;;;10.90;99.90;;;;;;5065068;28;20037;-47
2024/01/02 03:55:48;;;;;;;38.25;5.13;;;10.80;99.90;;;;;;5065394;28;20020;-46
2024/01/02 03:58:14;;;;;;;47.78;6.10;;;10.80;99.90;;;;;;5065481;28;20064;-47
2024/01/02 04:00:40;;;;;;;61.55;7.05;;;10.80;99.90;;;;;;5065532;28;20037;-47
2024/01/02 04:03:06;;;;;;;40.92;6.00;;;10.80;99.90;;;;;;5065410;28;20025;-47
2024/01/02 04:05:32;;;;;;;52.03;7.68;;;10.80;99.90;;;;;;5064966;28;20040;-47
2024/01/02 04:07:57;;;;;;;60.53;6.90;;;10.80;99.90;;;;;;5064381;28;20064;-47
2024/01/02 04:10:23;;;;;;;47.35;5.78;;;10.80;99.90;;;;;;5064024;28;20209;-46
2024/01/02 04:12:48;;;;;;;39.95;5.38;;;10.80;99.90;;;;;;5065359;28;20262;-47
2024/01/02 04:15:15;;;;;;;54.47;8.02;;;10.80;99.90;;;;;;5065255;28;20063;-47
2024/01/02 04:17:40;;;;;;;48.20;6.90;;;10.70;99.90;;;;;;5065340;28;20088;-47
2024/01/02 04:20:06;;;;;;;43.33;5.93;;;10.80;99.90;;;;;;5065237;28;20029;-48
2024/01/02 04:22:32;;;;;;;37.22;6.95;;;10.70;99.90;;;;;;5065329;28;20092;-46
2024/01/02 04:24:57;;;;;;;53.92;7.20;;;10.70;99.90;;;;;;5064812;28;20017;-47
2024/01/02 04:27:23;;;;;;;41.22;5.53;;;10.70;99.90;;;;;;5065363;28;20029;-47
2024/01/02 04:29:49;;;;;;;42.97;6.30;;;10.70;99.90;;;;;;5065326;28;20068;-47
2024/01/02 04:32:15;;;;;;;63.58;6.93;;;10.70;99.90;;;;;;5065149;28;20021;-47
2024/01/02 04:34:40;;;;;;;39.72;5.70;;;10.70;99.90;;;;;;5065088;28;20259;-49
2024/01/02 04:37:06;;;;;;;49.60;7.45;;;10.70;99.90;;;;;;5063819;28;20051;-47
2024/01/02 04:39:32;;;;;;;44.67;6.03;;;10.80;99.90;;;;;;5064885;28;20032;-47
2024/01/02 04:41:58;;;;;;;37.05;5.35;;;10.80;99.90;;;;;;5065206;28;20033;-47
2024/01/02 04:44:24;;;;;;;32.13;5.80;;;10.80;99.90;;;;;;5065183;28;20150;-48
2024/01/02 04:46:49;;;;;;;57.40;6.28;;;10.90;99.90;;;;;;5063989;28;20024;-47
2024/01/02 04:49:15;;;;;;;50.70;5.72;;;10.90;99.90;;;;;;5064954;28;20096;-48
2024/01/02 04:51:41;;;;;;;58.42;6.15;;;10.90;99.90;;;;;;5067073;28;20037;-50
2024/01/02 04:54:07;;;;;;;45.13;6.45;;;10.90;99.90;;;;;;5068788;28;20064;-49
2024/01/02 04:56:33;;;;;;;49.17;5.90;;;10.90;99.90;;;;;;5067467;28;20044;-50
2024/01/02 04:58:59;;;;;;;37.30;5.32;;;10.90;99.90;;;;;;5068757;28;20146;-48
2024/01/02 05:01:25;;;;;;;45.15;5.72;;;10.90;99.90;;;;;;5068394;28;20175;-48
2024/01/02 05:03:50;;;;;;;48.33;7.63;;;10.90;99.90;;;;;;5068441;28;20068;-47
2024/01/02 05:06:16;;;;;;;56.58;7.30;;;10.90;99.90;;;;;;5067485;28;20349;-47
2024/01/02 05:08:42;;;;;;;52.30;6.20;;;11.00;99.90;;;;;;5068283;28;20052;-47
2024/01/02 05:11:07;;;;;;;59.55;6.57;;;11.00;99.90;;;;;;5067950;28;20294;-47
2024/01/02 05:13:33;;;;;;;46.05;5.47;;;11.00;99.90;;;;;;5068054;28;20095;-47
2024/01/02 05:15:59;;;;;;;38.30;6.10;;;11.00;99.90;;;;;;5068224;28;20017;-47
2024/01/02 05:18:24;;;;;;;35.88;5.82;;;10.90;99.90;;;;;;5067297;28;20029;-47
2024/01/02 05:20:50;;;;;;;41.08;5.80;;;10.90;99.90;;;;;;5068278;28;20092;-47
2024/01/02 05:23:16;;;;;;;40.45;5.28;;;10.90;99.90;;;;;;5067924;28;20028;-47
2024/01/02 05:25:42;;;;;;;33.03;4.95;;;10.90;99.90;;;;;;5067999;28;20100;-47
2024/01/02 05:28:08;;;;;;;22.63;3.70;;;10.90;99.90;;;;;;5067140;28;20040;-48
2024/01/02 05:30:33;;;;;;;41.45;5.43;;;11.00;99.90;;;;;;5068164;28;20102;-49
2024/01/02 05:32:59;;;;;;;46.33;5.93;;;10.90;99.90;;;;;;5068045;28;20036;-49
2024/01/02 05:35:25;;;;;;;44.85;5.45;;;10.90;99.90;;;;;;5067747;28;20028;-48
2024/01/02 05:37:50;;;;;;;26.80;4.50;;;10.90;99.90;;;;;;5067941;28;20032;-47
2024/01/02 05:40:16;;;;;;;25.50;3.90;;;10.90;99.90;;;;;;5066759;28;20286;-49
2024/01/02 05:42:41;;;;;;;41.40;6.15;;;10.90;99.90;;;;;;5067905;28;20041;-49
2024/01/02 05:45:08;;;;;;;37.55;5.68;;;10.90;99.90;;;;;;5067750;28;20086;-48
2024/01/02 05:47:33;;;;;;;40.97;6.00;;;10.90;99.90;;;;;;5067554;28;20044;-50
2024/01/02 05:49:59;;;;;;;33.33;4.88;;;10.90;99.90;;;;;;5067699;28;20033;-50
2024/01/02 05:52:25;;;;;;;47.45;5.18;;;11.00;99.90;;;;;;5066553;28;20029;-49
2024/01/02 05:54:50;;;;;;;35.20;5.13;;;10.90;99.90;;;;;;5067723;28;20032;-48
2024/01/02 05:57:16;;;;;;;37.05;4.95;;;10.90;99.90;;;;;;5049809;28;20025;-50
2024/01/02 05:59:41;;;;;;;24.00;4.22;;;11.00;99.90;;;;;;5067063;28;20275;-49
2024/01/02 06:02:07;;;;;;;30.90;4.22;;;10.90;99.90;;;;;;5066182;28;20048;-51
2024/01/02 06:04:33;;;;;;;41.03;5.43;;;10.90;99.90;;;;;;5066543;28;20079;-51
2024/01/02 06:06:59;;;;;;;40.33;5.32;;;10.90;99.90;;;;;;5067398;28;20095;-48
2024/01/02 06:09:25;;;;;;;36.65;4.93;;;10.90;99.90;;;;;;5066934;28;20049;-49
2024/01/02 06:11:51;;;;;;;43.80;5.57;;;10.90;99.90;;;;;;5066132;28;20100;-48
2024/01/02 06:14:17;;;;;;;36.78;5.13;;;10.90;99.90;;;;;;5067278;28;20044;-48
2024/01/02 06:16:42;;;;;;;43.75;6.32;;;10.90;99.90;;;;;;5067306;28;20028;-48
2024/01/02 06:19:08;;;;;;;34.08;5.45;;;11.00;99.90;;;;;;5066189;28;20021;-48
2024/01/02 06:21:34;;;;;;;35.00;4.55;;;11.00;99.90;;;;;;5066911;28;20385;-48
2024/01/02 06:23:59;;;;;;;39.70;5.07;;;11.00;99.90;;;;;;5066186;28;20040;-47
2024/01/02 06:26:25;;;;;;;45.40;4.90;;;11.00;99.90;;;;;;5067052;28;20098;-47
2024/01/02 06:28:51;;;;;;;38.80;4.93;;;11.00;99.90;;;;;;5065946;28;20080;-48
2024/01/02 06:31:20;;;;;;;29.90;5.25;;;11.10;99.90;;;;;;5066756;28;20032;-47
2024/01/02 06:33:45;;;;;;;34.55;4.90;;;11.10;99.90;;;;;;5066668;28;20033;-47
2024/01/02 06:36:11;;;;;;;30.20;4.10;;;11.10;99.90;;;;;;5066736;28;20017;-47
2024/01/02 06:38:38;;;;;;;35.47;4.97;;;11.10;99.90;;;;;;5066782;28;20189;-48
2024/01/02 06:41:04;;;;;;;31.58;4.43;;;11.10;99.90;;;;;;5066383;28;20024;-48
2024/01/02 06:43:29;;;;;;;37.60;6.43;;;11.10;99.90;;;;;;5066515;28;20036;-48
2024/01/02 06:45:55;;;;;;;35.85;6.45;;;11.10;99.90;;;;;;5066619;28;20175;-48
2024/01/02 06:48:21;;;;;;;32.72;6.97;;;11.10;99.90;;;;;;5066074;28;20079;-47
2024/01/02 06:50:47;;;;;;;42.38;8.02;;;11.10;99.90;;;;;;5066408;28;20290;-48
2024/01/02 06:53:13;;;;;;;41.40;7.68;;;11.10;99.90;;;;;;5048828;28;20040;-48
2024/01/02 06:55:39;;;;;;;44.15;7.43;;;11.10;99.90;;;;;;5066412;28;20029;-47
2024/01/02 06:58:05;;;;;;;39.25;6.63;;;11.10;99.90;;;;;;5066281;28;20170;-48
2024/01/02 07:00:32;;;;;;;40.28;7.20;;;11.10;99.90;;;;;;5066404;28;20044;-48
2024/01/02 07:02:58;;;;;;;33.67;5.25;;;11.10;99.90;;;;;;5066240;28;20104;-48
2024/01/02 07:05:24;;;;;;;45.00;6.57;;;11.10;99.90;;;;;;5066200;28;20025;-48
2024/01/02 07:07:50;;;;;;;47.72;7.40;;;11.10;99.90;;;;;;5066110;28;20025;-49
2024/01/02 07:10:15;;;;;;;36.47;5.70;;;11.10;99.90;;;;;;5065988;28;20127;-51
2024/01/02 07:12:41;;;;;;;39.92;6.07;;;11.10;99.90;;;;;;5065635;28;20040;-48
2024/01/02 07:15:07;;;;;;;42.75;6.00;;;11.10;99.90;;;;;;5065997;28;20049;-47
2024/01/02 07:17:33;;;;;;;39.58;5.10;;;11.00;99.90;;;;;;5065790;28;20037;-47
2024/01/02 07:19:59;;;;;;;39.58;7.65;;;11.00;99.90;;;;;;5065517;28;20048;-47
2024/01/02 07:22:26;;;;;;;27.83;5.47;;;11.00;99.90;;;;;;5066096;28;20048;-48
2024/01/02 07:24:52;;;;;;;38.58;5.80;;;11.00;99.90;;;;;;5064838;28;20029;-47
2024/01/02 07:27:18;;;;;;;37.22;5.90;;;11.00;99.90;;;;;;5066055;28;20135;-47
2024/01/02 07:29:44;;;;;;;38.47;5.40;;;11.00;99.90;;;;;;5064788;28;20028;-46
2024/01/02 07:32:10;;;;;;;34.63;6.78;;;11.00;99.90;;;;;;5065677;28;20106;-46
2024/01/02 07:34:36;;;;;;;35.20;5.80;;;11.00;99.90;;;;;;5065301;28;20298;-47
2024/01/02 07:37:01;;;;;;;39.00;7.07;;;11.00;99.90;;;;;;5065491;28;20029;-48
2024/01/02 07:39:27;;;;;;;38.85;6.30;;;11.00;99.90;;;;;;5065546;28;20056;-47
2024/01/02 07:41:53;;;;;;;43.67;7.25;;;11.00;99.90;;;;;;5065480;28;20024;-47
2024/01/02 07:44:18;;;;;;;27.20;5.03;;;11.00;99.90;;;;;;5065713;28;20282;-48
2024/01/02 07:46:44;;;;;;;29.70;5.40;;;11.00;99.90;;;;;;5065677;28;20313;-47
2024/01/02 07:49:10;;;;;;;33.40;6.55;;;11.00;99.90;;;;;;5065452;28;20318;-47
2024/01/02 07:51:36;;;;;;;33.28;6.35;;;11.00;99.90;;;;;;5065236;28;20020;-48
2024/01/02 07:54:02;;;;;;;40.45;5.53;;;11.10;99.90;;;;;;5065434;28;20036;-48
2024/01/02 07:56:28;;;;;;;39.90;7.57;;;11.10;99.90;;;;;;5065633;28;20036;-48
2024/01/02 07:58:55;;;;;;;41.13;5.97;;;11.10;99.90;;;;;;5065536;28;20179;-47
2024/01/02 08:01:20;;;;;;;34.83;4.63;;;11.10;99.90;;;;;;5064099;28;20028;-48
2024/01/02 08:03:46;;;;;;;37.67;5.35;;;11.10;99.90;;;;;;5065259;28;20035;-48
2024/01/02 08:06:12;;;;;;;28.83;5.18;;;11.10;99.90;;;;;;5063996;28;20024;-48
2024/01/02 08:08:37;;;;;;;27.63;4.88;;;11.10;99.90;;;;;;5064785;28;20211;-47
2024/01/02 08:11:04;;;;;;;33.78;4.47;;;11.10;99.90;;;;;;5065180;28;20033;-50
2024/01/02 08:13:30;;;;;;;37.95;4.90;;;11.10;99.90;;;;;;5064073;28;20082;-48
2024/01/02 08:15:56;;;;;;;37.72;5.57;;;11.10;99.90;;;;;;5065204;28;20033;-50
2024/01/02 08:18:21;;;;;;;33.05;4.85;;;11.10;99.90;;;;;;5064181;28;20029;-47
2024/01/02 08:20:47;;;;;;;34.08;3.95;;;11.10;99.90;;;;;;5065370;28;20020;-47
2024/01/02 08:23:13;;;;;;;28.08;4.07;;;11.10;99.90;;;;;;5064968;28;20052;-49
2024/01/02 08:25:39;;;;;;;32.90;5.20;;;11.10;99.90;;;;;;5066752;28;20123;-47
2024/01/02 08:28:08;;;;;;;30.55;4.80;;;11.10;99.90;;;;;;5068260;28;20214;-50
2024/01/02 08:30:34;;;;;;;37.37;4.93;;;11.00;99.90;;;;;;5069261;28;20233;-51
2024/01/02 08:33:00;;;;;;;30.30;4.30;;;11.00;99.90;;;;;;5069183;28;20055;-50
2024/01/02 08:35:26;;;;;;;34.92;4.70;;;11.00;99.90;;;;;;5068221;28;20029;-48
2024/01/02 08:37:51;;;;;;;37.75;5.57;;;11.00;99.90;;;;;;5050980;28;20025;-48
2024/01/02 08:40:17;;;;;;;30.58;4.22;;;11.00;99.90;;;;;;5068913;28;20024;-48
2024/01/02 08:42:43;;;;;;;40.47;6.07;;;11.00;99.90;;;;;;5068442;28;20059;-48
2024/01/02 08:45:11;;;;;;;34.80;6.25;;;11.00;99.90;;;;;;5067507;28;20043;-48
2024/01/02 08:47:38;;;;;;;34.42;6.50;;;10.90;99.90;;;;;;5068749;28;20104;-48
2024/01/02 08:50:06;;;;;;;33.78;5.38;;;10.90;99.90;;;;;;5068711;28;20044;-49
2024/01/02 08:52:32;;;;;;;44.97;5.15;;;10.90;99.90;;;;;;5068632;28;20278;-51
2024/01/02 08:54:58;;;;;;;33.63;4.38;;;10.90;99.90;;;;;;5068701;28;20029;-49
2024/01/02 08:57:24;;;;;;;36.33;5.55;;;10.90;99.90;;;;;;5068434;28;20048;-51
2024/01/02 08:59:49;;;;;;;28.10;4.53;;;10.80;99.90;;;;;;5068504;28;20032;-50
2024/01/02 09:02:15;;;;;;;32.65;5.82;;;10.80;99.90;;;;;;5068626;28;20075;-50
2024/01/02 09:04:43;;;;;;;36.47;7.00;;;10.80;99.90;;;;;;5068570;28;20028;-50
2024/01/02 09:07:09;;;;;;;34.95;5.43;;;10.80;99.90;;;;;;5067598;28;20097;-52
2024/01/02 09:09:34;;;;;;;20.45;3.17;;;10.80;99.90;;;;;;5067963;28;20213;-50
2024/01/02 09:12:02;;;;;;;33.55;5.00;;;10.80;99.90;;;;;;5067194;28;20095;-51
2024/01/02 09:14:27;;;;;;;29.10;4.97;;;10.80;99.90;;;;;;5068007;28;20024;-50
2024/01/02 09:16:53;;;;;;;30.55;5.25;;;10.80;99.90;;;;;;5068336;28;20032;-50
2024/01/02 09:19:18;;;;;;;26.88;4.18;;;10.80;99.90;;;;;;5068167;28;20092;-50
2024/01/02 09:21:44;;;;;;;34.03;5.55;;;10.70;99.90;;;;;;5068041;28;20041;-50
2024/01/02 09:24:11;;;;;;;28.33;4.22;;;10.70;99.90;;;;;;5067116;28;20021;-50
2024/01/02 09:26:37;;;;;;;28.00;4.35;;;10.70;99.90;;;;;;5068237;28;20286;-50
2024/01/02 09:29:03;;;;;;;18.23;3.70;;;10.70;99.90;;;;;;5050606;28;20040;-50
2024/01/02 09:31:30;;;;;;;19.58;3.40;;;10.70;99.90;;;;;;5068203;28;20041;-50
2024/01/02 09:33:56;;;;;;;25.20;3.30;;;10.60;99.90;;;;;;5068016;28;20040;-51
2024/01/02 09:36:22;;;;;;;19.30;3.65;;;10.60;99.90;;;;;;5066724;28;20053;-49
2024/01/02 09:38:47;;;;;;;25.00;3.80;;;10.50;99.90;;;;;;5066958;28;20021;-50
2024/01/02 09:41:44;;;;;;;18.52;2.63;;;10.50;99.90;;;;;;5066734;28;20067;-49
2024/01/02 09:44:52;;;;;;;16.38;3.35;;;10.50;99.90;;;;;;5047632;28;20037;-50
2024/01/02 09:47:35;;;;;;;14.85;3.20;;;10.50;99.90;;;;;;5066874;28;20037;-50
2024/01/02 09:50:07;;;;;;;17.98;2.97;;;10.50;99.90;;;;;;5066803;28;20063;-50
2024/01/02 09:52:42;;;;;;;21.85;3.42;;;10.40;99.90;;;;;;5067655;28;20036;-49
2024/01/02 09:55:21;;;;;;;21.17;3.03;;;10.40;99.90;;;;;;5067663;28;20052;-49
2024/01/02 09:57:49;;;;;;;16.90;3.85;;;10.40;99.90;;;;;;5066988;28;20085;-47
2024/01/02 10:00:49;;;;;;;17.63;3.70;;;10.30;99.90;;;;;;5067382;28;20025;-47
2024/01/02 10:03:25;;;;;;;18.65;4.10;;;10.30;99.90;;;;;;5067472;28;20289;-46
2024/01/02 10:05:58;;;;;;;15.63;3.58;;;10.30;99.90;;;;;;5066230;28;20098;-49
2024/01/02 10:08:48;;;;;;;14.95;3.13;;;10.20;99.90;;;;;;5067013;28;20049;-47
2024/01/02 10:11:26;;;;;;;20.20;3.97;;;10.20;99.90;;;;;;5066872;28;20033;-48
2024/01/02 10:13:59;;;;;;;19.15;5.30;;;10.30;99.90;;;;;;5066702;28;20025;-46
2024/01/02 10:16:32;;;;;;;17.23;4.65;;;10.20;99.90;;;;;;5050128;28;20078;-46
2024/01/02 10:19:37;;;;;;;15.73;4.10;;;10.20;99.90;;;;;;5066092;28;20032;-49
2024/01/02 10:22:09;;;;;;;21.98;5.55;;;10.20;99.90;;;;;;5066949;28;20029;-48
2024/01/02 10:24:49;;;;;;;15.43;4.13;;;10.10;99.90;;;;;;5066064;28;20175;-47
2024/01/02 10:27:18;;;;;;;16.77;3.47;;;10.10;99.90;;;;;;5049211;28;20291;-48
2024/01/02 10:29:47;;;;;;;25.83;9.27;;;10.10;99.90;;;;;;5066570;28;20029;-47
2024/01/02 10:32:14;;;;;;;24.58;6.93;;;10.10;99.90;;;;;;5066341;28;20032;-47
2024/01/02 10:34:47;;;;;;;45.22;17.77;;;10.10;99.90;;;;;;5066761;28;20029;-46
2024/01/02 10:37:13;;;;;;;32.40;8.45;;;10.10;99.90;;;;;;5065607;28;20031;-49
2024/01/02 10:39:47;;;;;;;21.05;4.32;;;10.10;99.90;;;;;;5066451;28;20032;-47
2024/01/02 10:42:40;;;;;;;20.42;6.30;;;10.00;99.90;;;;;;5065502;28;20037;-49
2024/01/02 10:45:18;;;;;;;21.92;4.93;;;10.10;99.90;;;;;;5066284;28;20102;-46
2024/01/02 10:48:06;;;;;;;20.50;3.95;;;10.10;99.90;;;;;;5064779;28;20123;-49
2024/01/02 10:50:56;;;;;;;20.88;7.00;;;10.00;99.90;;;;;;5066399;28;20035;-47
2024/01/02 10:54:04;;;;;;;24.17;6.75;;;10.00;99.90;;;;;;5051526;28;20104;-46
2024/01/02 10:57:01;;;;;;;26.52;9.20;;;10.10;99.90;;;;;;5065978;28;20037;-49
2024/01/02 10:59:35;;;;;;;25.23;5.00;;;10.10;99.90;;;;;;5065330;28;20223;-50
2024/01/02 11:02:21;;;;;;;16.80;4.43;;;10.10;99.90;;;;;;5066146;28;20064;-47
2024/01/02 11:04:54;;;;;;;24.52;5.45;;;10.10;99.90;;;;;;5064989;28;20049;-48
2024/01/02 11:07:21;;;;;;;43.13;24.35;;;10.10;99.90;;;;;;5065180;28;20278;-48
2024/01/02 11:09:55;;;;;;;32.55;9.98;;;10.10;99.90;;;;;;5065802;28;20124;-49
2024/01/02 11:12:22;;;;;;;30.77;12.15;;;10.10;99.90;;;;;;5064959;28;20135;-48
2024/01/02 11:14:48;;;;;;;94.53;57.40;;;10.10;99.90;;;;;;5065778;28;20082;-49
2024/01/02 11:17:15;;;;;;;36.00;15.52;;;10.10;99.90;;;;;;5048263;28;20251;-46
2024/01/02 11:19:48;;;;;;;20.80;10.63;;;10.10;99.90;;;;;;5065011;28;20051;-45
2024/01/02 11:22:17;;;;;;;17.02;7.22;;;10.10;99.90;;;;;;5065058;28;20041;-46
2024/01/02 11:24:48;;;;;;;22.47;5.80;;;10.10;99.90;;;;;;5064921;28;20040;-46
2024/01/02 11:27:14;;;;;;;18.02;6.30;;;10.20;99.90;;;;;;5065425;28;20273;-47
2024/01/02 11:29:43;;;;;;;14.65;4.88;;;10.20;99.90;;;;;;5064900;28;20231;-49
2024/01/02 11:32:11;;;;;;;28.55;21.80;;;10.20;99.90;;;;;;5064642;28;20334;-48
2024/01/02 11:35:04;;;;;;;42.47;28.38;;;10.10;99.90;;;;;;5064106;28;20035;-51
2024/01/02 11:37:37;;;;;;;28.08;11.95;;;10.20;99.90;;;;;;5064462;28;20293;-49
2024/01/02 11:40:27;;;;;;;15.38;5.20;;;10.10;99.90;;;;;;5047766;28;20025;-49
2024/01/02 11:43:13;;;;;;;32.45;22.48;;;10.10;99.90;;;;;;5064636;28;20045;-47
2024/01/02 11:45:39;;;;;;;32.40;10.90;;;10.10;99.90;;;;;;5064604;28;20063;-48
2024/01/02 11:48:59;;;;;;;75.03;33.00;;;10.00;99.90;;;;;;5064778;28;20037;-47
2024/01/02 11:51:27;;;;;;;126.63;70.50;;;10.00;99.90;;;;;;5064581;28;20167;-47
2024/01/02 11:53:56;;;;;;;39.65;20.67;;;10.00;99.90;;;;;;5065011;28;20051;-48
2024/01/02 11:56:23;;;;;;;36.53;21.25;;;10.00;99.90;;;;;;5065173;28;20032;-48
2024/01/02 11:58:58;;;;;;;20.70;10.70;;;10.00;99.90;;;;;;5064107;28;20096;-48
2024/01/02 12:01:35;;;;;;;70.70;50.85;;;10.00;99.90;;;;;;5064199;28;20104;-48
2024/01/02 12:04:30;;;;;;;26.52;19.40;;;10.00;99.90;;;;;;5063967;28;20017;-49
2024/01/02 12:07:15;;;;;;;17.50;7.47;;;10.00;99.90;;;;;;5064095;28;20061;-49
2024/01/02 12:09:43;;;;;;;13.95;4.30;;;10.00;99.90;;;;;;5064012;28;20206;-48
2024/01/02 12:12:35;;;;;;;10.50;2.83;;;10.00;99.90;;;;;;5063714;28;20040;-46
2024/01/02 12:15:21;;;;;;;16.48;4.15;;;10.00;99.90;;;;;;5064897;28;20020;-46
2024/01/02 12:18:03;;;;;;;11.50;3.72;;;10.00;99.90;;;;;;5048631;28;20025;-47
2024/01/02 12:20:45;;;;;;;15.75;3.30;;;10.10;99.90;;;;;;5048971;28;20190;-46
2024/01/02 12:23:11;;;;;;;14.07;3.47;;;10.10;99.90;;;;;;5064084;28;20039;-49
2024/01/02 12:25:38;;;;;;;10.98;3.28;;;10.10;99.90;;;;;;5064055;28;20195;-49
2024/01/02 12:28:04;;;;;;;6.85;2.17;;;10.10;99.90;;;;;;5047159;28;20206;-46
2024/01/02 12:30:32;;;;;;;11.27;2.50;;;10.10;99.90;;;;;;5063582;28;20071;-49
2024/01/02 12:33:09;;;;;;;11.88;2.40;;;10.10;99.90;;;;;;5064893;28;20024;-47
2024/01/02 12:35:56;;;;;;;13.68;2.80;;;10.10;99.90;;;;;;5064886;28;20037;-46
2024/01/02 12:38:21;;;;;;;19.88;5.32;;;10.10;99.90;;;;;;5064182;28;20021;-47
2024/01/02 12:40:48;;;;;;;12.95;2.97;;;10.10;99.90;;;;;;5063591;28;20345;-46
2024/01/02 12:43:20;;;;;;;9.95;3.05;;;10.10;99.90;;;;;;5064639;28;20025;-46